sensor_id;sensor_type;location;lat;lon;timestamp;pressure;altitude;pressure_sealevel;temperature;humidity
7940;BME280;4015;48.888;9.226;2023-04-01T00:00:24;157475.94;;;8.88;86.06
7940;BME280;4015;48.888;9.226;2023-04-01T00:02:49;157451.66;;;8.78;86.53
7940;BME280;4015;48.888;9.226;2023-04-01T00:05:15;157460.63;;;8.82;86.19
7940;BME280;4015;48.888;9.226;2023-04-01T00:07:42;157447.84;;;8.77;86.95
7940;BME280;4015;48.888;9.226;2023-04-01T00:10:09;157451.66;;;8.78;86.12
7940;BME280;4015;48.888;9.226;2023-04-01T00:12:36;157447.84;;;8.77;86.06
7940;BME280;4015;48.888;9.226;2023-04-01T00:15:03;157458.06;;;8.81;85.74
7940;BME280;4015;48.888;9.226;2023-04-01T00:17:28;157474.66;;;8.87;85.72
7940;BME280;4015;48.888;9.226;2023-04-01T00:19:57;157477.19;;;8.88;85.65
7940;BME280;4015;48.888;9.226;2023-04-01T00:22:26;157489.97;;;8.94;85.05
7940;BME280;4015;48.888;9.226;2023-04-01T00:24:52;157489.97;;;8.94;85.41
7940;BME280;4015;48.888;9.226;2023-04-01T00:27:17;157482.28;;;8.90;85.67
7940;BME280;4015;48.888;9.226;2023-04-01T00:29:43;157492.50;;;8.95;86.35
7940;BME280;4015;48.888;9.226;2023-04-01T00:32:09;157484.84;;;8.91;87.03
7940;BME280;4015;48.888;9.226;2023-04-01T00:34:35;157475.94;;;8.88;87.02
7940;BME280;4015;48.888;9.226;2023-04-01T00:37:00;157478.47;;;8.89;87.23
7940;BME280;4015;48.888;9.226;2023-04-01T00:39:29;157484.84;;;8.91;86.22
7940;BME280;4015;48.888;9.226;2023-04-01T00:41:54;157487.44;;;8.93;86.37
7940;BME280;4015;48.888;9.226;2023-04-01T00:44:25;157482.28;;;8.90;85.75
7940;BME280;4015;48.888;9.226;2023-04-01T00:46:50;157493.78;;;8.95;86.06
7940;BME280;4015;48.888;9.226;2023-04-01T00:49:19;157479.75;;;8.89;86.53
7940;BME280;4015;48.888;9.226;2023-04-01T00:51:47;157492.50;;;8.95;85.92
7940;BME280;4015;48.888;9.226;2023-04-01T00:54:14;157500.16;;;8.98;85.85
7940;BME280;4015;48.888;9.226;2023-04-01T00:57:12;157526.97;;;9.08;85.80
7940;BME280;4015;48.888;9.226;2023-04-01T00:59:48;157516.72;;;9.04;85.73
7940;BME280;4015;48.888;9.226;2023-04-01T01:02:15;157529.50;;;9.09;85.30
7940;BME280;4015;48.888;9.226;2023-04-01T01:04:41;157533.31;;;9.11;85.37
7940;BME280;4015;48.888;9.226;2023-04-01T01:12:21;157541.00;;;9.14;85.85
7940;BME280;4015;48.888;9.226;2023-04-01T01:20:31;157533.31;;;9.11;86.58
7940;BME280;4015;48.888;9.226;2023-04-01T01:23:14;157526.97;;;9.08;86.35
7940;BME280;4015;48.888;9.226;2023-04-01T01:28:22;157549.91;;;9.17;85.69
7940;BME280;4015;48.888;9.226;2023-04-01T01:31:00;157555.06;;;9.19;85.89
7940;BME280;4015;48.888;9.226;2023-04-01T01:36:13;157549.91;;;9.17;85.09
7940;BME280;4015;48.888;9.226;2023-04-01T01:38:41;157561.41;;;9.22;86.18
7940;BME280;4015;48.888;9.226;2023-04-01T01:41:08;157567.81;;;9.25;85.56
7940;BME280;4015;48.888;9.226;2023-04-01T01:43:43;157576.72;;;9.28;85.37
7940;BME280;4015;48.888;9.226;2023-04-01T01:46:13;157569.09;;;9.25;85.95
7940;BME280;4015;48.888;9.226;2023-04-01T01:48:42;157563.97;;;9.23;86.19
7940;BME280;4015;48.888;9.226;2023-04-01T01:51:08;157557.59;;;9.21;86.33
7940;BME280;4015;48.888;9.226;2023-04-01T01:53:33;157547.38;;;9.16;87.18
7940;BME280;4015;48.888;9.226;2023-04-01T01:55:59;157546.09;;;9.16;87.18
7940;BME280;4015;48.888;9.226;2023-04-01T01:58:30;157533.31;;;9.11;87.77
7940;BME280;4015;48.888;9.226;2023-04-01T02:01:03;157524.41;;;9.07;88.37
7940;BME280;4015;48.888;9.226;2023-04-01T02:03:33;157512.91;;;9.03;89.54
7940;BME280;4015;48.888;9.226;2023-04-01T02:06:01;157505.28;;;9.00;89.31
7940;BME280;4015;48.888;9.226;2023-04-01T02:08:35;157504.00;;;8.99;89.37
7940;BME280;4015;48.888;9.226;2023-04-01T02:11:06;157495.06;;;8.96;89.50
7940;BME280;4015;48.888;9.226;2023-04-01T02:13:43;157502.69;;;8.99;89.13
7940;BME280;4015;48.888;9.226;2023-04-01T02:16:22;157505.28;;;9.00;89.16
7940;BME280;4015;48.888;9.226;2023-04-01T02:18:51;157501.41;;;8.98;88.87
7940;BME280;4015;48.888;9.226;2023-04-01T02:21:21;157500.16;;;8.98;89.27
7940;BME280;4015;48.888;9.226;2023-04-01T02:23:47;157488.69;;;8.93;89.33
7940;BME280;4015;48.888;9.226;2023-04-01T02:26:14;157495.06;;;8.96;88.92
7940;BME280;4015;48.888;9.226;2023-04-01T02:28:41;157500.16;;;8.98;88.70
7940;BME280;4015;48.888;9.226;2023-04-01T02:31:10;157497.59;;;8.97;88.92
7940;BME280;4015;48.888;9.226;2023-04-01T02:33:37;157463.16;;;8.83;89.25
7940;BME280;4015;48.888;9.226;2023-04-01T02:36:04;157468.25;;;8.85;88.43
7940;BME280;4015;48.888;9.226;2023-04-01T02:38:29;157475.94;;;8.88;88.87
7940;BME280;4015;48.888;9.226;2023-04-01T02:41:00;157461.88;;;8.82;88.90
7940;BME280;4015;48.888;9.226;2023-04-01T02:43:26;157442.75;;;8.75;88.72
7940;BME280;4015;48.888;9.226;2023-04-01T02:45:52;157459.34;;;8.81;88.77
7940;BME280;4015;48.888;9.226;2023-04-01T02:48:17;157465.72;;;8.84;88.86
7940;BME280;4015;48.888;9.226;2023-04-01T02:50:42;157466.97;;;8.84;88.58
7940;BME280;4015;48.888;9.226;2023-04-01T02:53:08;157466.97;;;8.84;89.13
7940;BME280;4015;48.888;9.226;2023-04-01T02:55:34;157464.44;;;8.83;89.29
7940;BME280;4015;48.888;9.226;2023-04-01T02:57:59;157463.16;;;8.83;88.91
7940;BME280;4015;48.888;9.226;2023-04-01T03:00:25;157449.13;;;8.77;89.33
7940;BME280;4015;48.888;9.226;2023-04-01T03:02:52;157452.94;;;8.79;88.83
7940;BME280;4015;48.888;9.226;2023-04-01T03:05:17;157441.50;;;8.74;89.38
7940;BME280;4015;48.888;9.226;2023-04-01T03:07:43;157435.09;;;8.72;89.48
7940;BME280;4015;48.888;9.226;2023-04-01T03:10:09;157423.59;;;8.67;89.26
7940;BME280;4015;48.888;9.226;2023-04-01T03:12:35;157412.16;;;8.62;89.16
7940;BME280;4015;48.888;9.226;2023-04-01T03:15:00;157419.78;;;8.65;89.08
7940;BME280;4015;48.888;9.226;2023-04-01T03:17:25;157415.97;;;8.64;89.02
7940;BME280;4015;48.888;9.226;2023-04-01T03:19:51;157424.91;;;8.68;88.28
7940;BME280;4015;48.888;9.226;2023-04-01T03:22:16;157430.00;;;8.70;88.96
7940;BME280;4015;48.888;9.226;2023-04-01T03:24:41;157417.22;;;8.64;88.41
7940;BME280;4015;48.888;9.226;2023-04-01T03:27:07;157407.00;;;8.60;88.59
7940;BME280;4015;48.888;9.226;2023-04-01T03:29:32;157385.34;;;8.52;88.85
7940;BME280;4015;48.888;9.226;2023-04-01T03:31:57;157385.34;;;8.52;90.47
7940;BME280;4015;48.888;9.226;2023-04-01T03:34:24;157361.06;;;8.42;90.38
7940;BME280;4015;48.888;9.226;2023-04-01T03:36:50;157347.09;;;8.36;90.96
7940;BME280;4015;48.888;9.226;2023-04-01T03:39:16;157329.13;;;8.29;90.32
7940;BME280;4015;48.888;9.226;2023-04-01T03:41:44;157312.56;;;8.23;90.43
7940;BME280;4015;48.888;9.226;2023-04-01T03:44:09;157311.28;;;8.22;90.44
7940;BME280;4015;48.888;9.226;2023-04-01T03:46:35;157304.94;;;8.20;90.09
7940;BME280;4015;48.888;9.226;2023-04-01T03:49:00;157303.66;;;8.19;89.63
7940;BME280;4015;48.888;9.226;2023-04-01T03:51:25;157313.84;;;8.23;89.03
7940;BME280;4015;48.888;9.226;2023-04-01T03:53:51;157320.25;;;8.26;87.96
7940;BME280;4015;48.888;9.226;2023-04-01T03:56:16;157330.47;;;8.30;88.04
7940;BME280;4015;48.888;9.226;2023-04-01T03:58:42;157334.28;;;8.31;88.18
7940;BME280;4015;48.888;9.226;2023-04-01T04:01:15;157313.84;;;8.23;88.19
7940;BME280;4015;48.888;9.226;2023-04-01T04:03:40;157296.00;;;8.16;88.54
7940;BME280;4015;48.888;9.226;2023-04-01T04:06:07;157287.09;;;8.13;88.48
7940;BME280;4015;48.888;9.226;2023-04-01T04:08:34;157298.59;;;8.17;88.21
7940;BME280;4015;48.888;9.226;2023-04-01T04:11:00;157288.34;;;8.13;87.89
7940;BME280;4015;48.888;9.226;2023-04-01T04:13:25;157287.09;;;8.13;87.37
7940;BME280;4015;48.888;9.226;2023-04-01T04:15:50;157290.91;;;8.14;87.94
7940;BME280;4015;48.888;9.226;2023-04-01T04:18:16;157276.88;;;8.08;87.74
7940;BME280;4015;48.888;9.226;2023-04-01T04:20:47;157290.91;;;8.14;86.98
7940;BME280;4015;48.888;9.226;2023-04-01T04:23:15;157315.16;;;8.24;86.13
7940;BME280;4015;48.888;9.226;2023-04-01T04:25:40;157336.81;;;8.32;86.16
7940;BME280;4015;48.888;9.226;2023-04-01T04:28:06;157341.91;;;8.34;85.04
7940;BME280;4015;48.888;9.226;2023-04-01T04:30:31;157343.19;;;8.35;85.14
7940;BME280;4015;48.888;9.226;2023-04-01T04:32:56;157361.06;;;8.42;84.40
7940;BME280;4015;48.888;9.226;2023-04-01T04:35:22;157347.09;;;8.36;84.30
7940;BME280;4015;48.888;9.226;2023-04-01T04:37:47;157330.47;;;8.30;84.46
7940;BME280;4015;48.888;9.226;2023-04-01T04:40:12;157338.09;;;8.33;84.11
7940;BME280;4015;48.888;9.226;2023-04-01T04:42:38;157330.47;;;8.30;85.09
7940;BME280;4015;48.888;9.226;2023-04-01T04:45:03;157359.81;;;8.42;84.48
7940;BME280;4015;48.888;9.226;2023-04-01T04:47:29;157370.03;;;8.46;84.15
7940;BME280;4015;48.888;9.226;2023-04-01T04:49:54;157370.03;;;8.46;83.92
7940;BME280;4015;48.888;9.226;2023-04-01T04:52:19;157363.66;;;8.43;83.62
7940;BME280;4015;48.888;9.226;2023-04-01T04:54:45;157349.63;;;8.37;83.78
7940;BME280;4015;48.888;9.226;2023-04-01T04:57:10;157348.38;;;8.37;84.28
7940;BME280;4015;48.888;9.226;2023-04-01T04:59:35;157338.09;;;8.33;84.62
7940;BME280;4015;48.888;9.226;2023-04-01T05:02:01;157333.00;;;8.31;84.15
7940;BME280;4015;48.888;9.226;2023-04-01T05:04:27;157303.66;;;8.19;84.99
7940;BME280;4015;48.888;9.226;2023-04-01T05:06:52;157302.41;;;8.19;84.61
7940;BME280;4015;48.888;9.226;2023-04-01T05:09:17;157316.44;;;8.24;85.23
7940;BME280;4015;48.888;9.226;2023-04-01T05:11:43;157335.56;;;8.32;85.42
7940;BME280;4015;48.888;9.226;2023-04-01T05:14:15;157329.13;;;8.29;85.40
7940;BME280;4015;48.888;9.226;2023-04-01T05:16:40;157324.06;;;8.27;85.07
7940;BME280;4015;48.888;9.226;2023-04-01T05:19:06;157318.97;;;8.25;85.16
7940;BME280;4015;48.888;9.226;2023-04-01T05:21:31;157330.47;;;8.30;85.58
7940;BME280;4015;48.888;9.226;2023-04-01T05:23:57;157325.34;;;8.28;85.32
7940;BME280;4015;48.888;9.226;2023-04-01T05:26:22;157310.03;;;8.22;85.85
7940;BME280;4015;48.888;9.226;2023-04-01T05:28:47;157301.13;;;8.18;86.20
7940;BME280;4015;48.888;9.226;2023-04-01T05:31:13;157313.84;;;8.23;86.13
7940;BME280;4015;48.888;9.226;2023-04-01T05:33:38;157331.75;;;8.30;86.13
7940;BME280;4015;48.888;9.226;2023-04-01T05:36:11;157329.13;;;8.29;85.99
7940;BME280;4015;48.888;9.226;2023-04-01T05:38:37;157320.25;;;8.26;86.56
7940;BME280;4015;48.888;9.226;2023-04-01T05:41:03;157329.13;;;8.29;86.90
7940;BME280;4015;48.888;9.226;2023-04-01T05:43:28;157324.06;;;8.27;87.16
7940;BME280;4015;48.888;9.226;2023-04-01T05:45:55;157329.13;;;8.29;87.28
7940;BME280;4015;48.888;9.226;2023-04-01T05:48:20;157316.44;;;8.24;87.91
7940;BME280;4015;48.888;9.226;2023-04-01T05:50:46;157343.19;;;8.35;87.46
7940;BME280;4015;48.888;9.226;2023-04-01T05:53:11;157358.53;;;8.41;86.32
7940;BME280;4015;48.888;9.226;2023-04-01T05:55:36;157382.78;;;8.51;86.58
7940;BME280;4015;48.888;9.226;2023-04-01T05:58:02;157407.00;;;8.60;86.00
7940;BME280;4015;48.888;9.226;2023-04-01T06:00:27;157431.28;;;8.70;84.67
7940;BME280;4015;48.888;9.226;2023-04-01T06:02:52;157442.75;;;8.75;85.18
7940;BME280;4015;48.888;9.226;2023-04-01T06:05:23;157474.66;;;8.87;83.79
7940;BME280;4015;48.888;9.226;2023-04-01T06:07:51;157491.25;;;8.94;83.52
7940;BME280;4015;48.888;9.226;2023-04-01T06:10:21;157510.38;;;9.02;82.23
7940;BME280;4015;48.888;9.226;2023-04-01T06:15:32;157611.19;;;9.42;81.41
7940;BME280;4015;48.888;9.226;2023-04-01T06:18:18;157615.03;;;9.43;80.54
7940;BME280;4015;48.888;9.226;2023-04-01T06:29:08;157669.91;;;9.65;79.11
7940;BME280;4015;48.888;9.226;2023-04-01T06:45:47;157658.41;;;9.61;78.52
7940;BME280;4015;48.888;9.226;2023-04-01T06:53:28;157685.22;;;9.71;78.41
7940;BME280;4015;48.888;9.226;2023-04-01T06:56:04;157700.56;;;9.78;79.08
7940;BME280;4015;48.888;9.226;2023-04-01T06:58:42;157714.59;;;9.83;79.32
7940;BME280;4015;48.888;9.226;2023-04-01T07:01:23;157705.66;;;9.80;79.07
7940;BME280;4015;48.888;9.226;2023-04-01T07:04:00;157706.91;;;9.80;79.21
7940;BME280;4015;48.888;9.226;2023-04-01T07:06:42;157750.34;;;9.97;78.74
7940;BME280;4015;48.888;9.226;2023-04-01T07:09:16;157747.78;;;9.96;77.97
7940;BME280;4015;48.888;9.226;2023-04-01T07:11:43;157738.84;;;9.93;78.07
7940;BME280;4015;48.888;9.226;2023-04-01T07:14:33;157722.25;;;9.86;78.24
7940;BME280;4015;48.888;9.226;2023-04-01T07:17:12;157751.63;;;9.98;79.67
7940;BME280;4015;48.888;9.226;2023-04-01T07:19:47;157773.34;;;10.07;78.95
7940;BME280;4015;48.888;9.226;2023-04-01T07:24:44;157751.63;;;9.98;78.83
7940;BME280;4015;48.888;9.226;2023-04-01T07:27:11;157765.66;;;10.04;78.36
7940;BME280;4015;48.888;9.226;2023-04-01T07:29:37;157741.44;;;9.94;78.08
7940;BME280;4015;48.888;9.226;2023-04-01T07:35:13;157719.69;;;9.85;78.26
7940;BME280;4015;48.888;9.226;2023-04-01T07:40:21;157769.47;;;10.05;79.01
7940;BME280;4015;48.888;9.226;2023-04-01T07:45:43;157777.16;;;10.08;78.27
7940;BME280;4015;48.888;9.226;2023-04-01T07:50:43;157773.34;;;10.07;78.20
7940;BME280;4015;48.888;9.226;2023-04-01T07:56:10;157789.94;;;10.13;78.23
7940;BME280;4015;48.888;9.226;2023-04-01T07:58:52;157830.84;;;10.30;78.40
7940;BME280;4015;48.888;9.226;2023-04-01T08:01:30;157834.69;;;10.31;78.82
7940;BME280;4015;48.888;9.226;2023-04-01T08:06:59;157830.84;;;10.30;77.15
7940;BME280;4015;48.888;9.226;2023-04-01T08:12:17;157828.28;;;10.29;78.02
7940;BME280;4015;48.888;9.226;2023-04-01T08:20:27;157866.63;;;10.44;78.84
7940;BME280;4015;48.888;9.226;2023-04-01T08:23:00;157850.03;;;10.37;78.38
7940;BME280;4015;48.888;9.226;2023-04-01T08:25:31;157848.72;;;10.37;78.74
7940;BME280;4015;48.888;9.226;2023-04-01T08:30:44;157843.63;;;10.35;79.12
7940;BME280;4015;48.888;9.226;2023-04-01T08:33:17;157833.38;;;10.31;78.37
7940;BME280;4015;48.888;9.226;2023-04-01T08:35:55;157835.97;;;10.32;79.72
7940;BME280;4015;48.888;9.226;2023-04-01T08:38:40;157829.56;;;10.29;79.16
7940;BME280;4015;48.888;9.226;2023-04-01T08:44:08;157837.25;;;10.32;85.76
7940;BME280;4015;48.888;9.226;2023-04-01T08:46:45;157782.25;;;10.10;86.46
7940;BME280;4015;48.888;9.226;2023-04-01T09:00:38;157641.81;;;9.54;90.31
7940;BME280;4015;48.888;9.226;2023-04-01T09:03:35;157599.72;;;9.37;89.48
7940;BME280;4015;48.888;9.226;2023-04-01T09:06:29;157586.94;;;9.32;90.00
7940;BME280;4015;48.888;9.226;2023-04-01T09:23:55;157715.88;;;9.84;84.13
7940;BME280;4015;48.888;9.226;2023-04-01T09:26:54;157764.38;;;10.03;85.27
7940;BME280;4015;48.888;9.226;2023-04-01T09:40:28;157985.41;;;10.91;82.16
7940;BME280;4015;48.888;9.226;2023-04-01T09:48:34;157924.09;;;10.67;81.48
7940;BME280;4015;48.888;9.226;2023-04-01T09:53:47;157864.03;;;10.43;79.46
7940;BME280;4015;48.888;9.226;2023-04-01T09:57:22;157883.25;;;10.50;78.71
7940;BME280;4015;48.888;9.226;2023-04-01T10:03:05;157931.78;;;10.70;78.83
7940;BME280;4015;48.888;9.226;2023-04-01T10:14:07;157884.50;;;10.51;78.12
7940;BME280;4015;48.888;9.226;2023-04-01T10:39:32;157959.84;;;10.81;76.69
7940;BME280;4015;48.888;9.226;2023-04-01T10:45:22;157963.72;;;10.83;75.82
7940;BME280;4015;48.888;9.226;2023-04-01T10:48:12;157952.19;;;10.78;77.88
7940;BME280;4015;48.888;9.226;2023-04-01T10:51:04;157926.63;;;10.68;78.66
7940;BME280;4015;48.888;9.226;2023-04-01T11:15:43;158010.97;;;11.01;77.03
7940;BME280;4015;48.888;9.226;2023-04-01T11:21:29;158045.47;;;11.15;75.75
7940;BME280;4015;48.888;9.226;2023-04-01T11:33:01;158159.22;;;11.60;74.86
7940;BME280;4015;48.888;9.226;2023-04-01T11:44:18;158248.75;;;11.96;72.44
7940;BME280;4015;48.888;9.226;2023-04-01T11:52:14;158166.91;;;11.64;71.99
7940;BME280;4015;48.888;9.226;2023-04-01T11:57:38;158206.50;;;11.79;71.71
7940;BME280;4015;48.888;9.226;2023-04-01T12:00:23;158180.97;;;11.69;72.64
7940;BME280;4015;48.888;9.226;2023-04-01T12:06:02;158142.59;;;11.54;74.84
7940;BME280;4015;48.888;9.226;2023-04-01T12:14:08;158097.84;;;11.36;76.50
7940;BME280;4015;48.888;9.226;2023-04-01T12:19:20;158146.41;;;11.55;75.13
7940;BME280;4015;48.888;9.226;2023-04-01T12:22:32;158212.97;;;11.82;73.53
7940;BME280;4015;48.888;9.226;2023-04-01T12:25:25;158278.16;;;12.08;73.90
7940;BME280;4015;48.888;9.226;2023-04-01T12:30:49;158280.72;;;12.09;73.71
7940;BME280;4015;48.888;9.226;2023-04-01T12:35:55;158273.03;;;12.06;72.87
7940;BME280;4015;48.888;9.226;2023-04-01T12:38:40;158282.00;;;12.09;73.03
7940;BME280;4015;48.888;9.226;2023-04-01T12:47:43;158255.13;;;11.99;71.98
7940;BME280;4015;48.888;9.226;2023-04-01T12:50:23;158234.69;;;11.91;72.64
7940;BME280;4015;48.888;9.226;2023-04-01T12:53:10;158237.25;;;11.92;72.10
7940;BME280;4015;48.888;9.226;2023-04-01T12:55:42;158214.25;;;11.82;71.72
7940;BME280;4015;48.888;9.226;2023-04-01T13:00:59;158216.81;;;11.83;72.92
7940;BME280;4015;48.888;9.226;2023-04-01T13:11:59;158183.53;;;11.70;72.49
7940;BME280;4015;48.888;9.226;2023-04-01T13:14:36;158150.28;;;11.57;74.41
7940;BME280;4015;48.888;9.226;2023-04-01T13:17:22;158065.91;;;11.23;75.29
7940;BME280;4015;48.888;9.226;2023-04-01T13:22:31;157947.09;;;10.76;80.66
7940;BME280;4015;48.888;9.226;2023-04-01T13:25:06;157838.53;;;10.33;84.35
7940;BME280;4015;48.888;9.226;2023-04-01T13:28:00;157789.94;;;10.13;83.57
7940;BME280;4015;48.888;9.226;2023-04-01T13:30:34;157798.88;;;10.17;83.16
7940;BME280;4015;48.888;9.226;2023-04-01T13:36:32;157887.06;;;10.52;83.12
7940;BME280;4015;48.888;9.226;2023-04-01T13:44:54;157966.25;;;10.84;81.13
7940;BME280;4015;48.888;9.226;2023-04-01T14:12:58;157920.25;;;10.65;81.55
7940;BME280;4015;48.888;9.226;2023-04-01T14:15:56;157921.53;;;10.66;78.60
7940;BME280;4015;48.888;9.226;2023-04-01T14:33:05;158042.94;;;11.14;76.72
7940;BME280;4015;48.888;9.226;2023-04-01T14:35:49;158048.03;;;11.16;77.51
7940;BME280;4015;48.888;9.226;2023-04-01T14:38:26;158031.41;;;11.10;78.09
7940;BME280;4015;48.888;9.226;2023-04-01T14:41:19;158022.44;;;11.06;78.77
7940;BME280;4015;48.888;9.226;2023-04-01T14:44:13;157979.03;;;10.89;78.54
7940;BME280;4015;48.888;9.226;2023-04-01T14:46:48;157971.34;;;10.86;78.37
7940;BME280;4015;48.888;9.226;2023-04-01T14:51:46;157970.06;;;10.85;79.26
7940;BME280;4015;48.888;9.226;2023-04-01T14:56:42;157990.50;;;10.93;78.72
7940;BME280;4015;48.888;9.226;2023-04-01T14:59:26;158026.31;;;11.07;79.98
7940;BME280;4015;48.888;9.226;2023-04-01T15:02:18;158039.09;;;11.13;80.27
7940;BME280;4015;48.888;9.226;2023-04-01T15:04:58;158041.66;;;11.14;78.47
7940;BME280;4015;48.888;9.226;2023-04-01T15:30:35;158054.41;;;11.19;77.51
7940;BME280;4015;48.888;9.226;2023-04-01T15:33:24;158088.94;;;11.32;78.16
7940;BME280;4015;48.888;9.226;2023-04-01T15:36:37;158106.81;;;11.40;78.19
7940;BME280;4015;48.888;9.226;2023-04-01T15:49:52;158077.41;;;11.28;77.44
7940;BME280;4015;48.888;9.226;2023-04-01T15:52:43;158079.97;;;11.29;76.42
7940;BME280;4015;48.888;9.226;2023-04-01T15:55:20;158062.09;;;11.22;77.83
7940;BME280;4015;48.888;9.226;2023-04-01T15:58:16;158033.97;;;11.11;76.63
7940;BME280;4015;48.888;9.226;2023-04-01T16:01:13;158039.09;;;11.13;77.20
7940;BME280;4015;48.888;9.226;2023-04-01T16:04:06;158004.56;;;10.99;76.58
7940;BME280;4015;48.888;9.226;2023-04-01T16:21:08;157943.25;;;10.74;75.60
7940;BME280;4015;48.888;9.226;2023-04-01T16:23:37;157953.47;;;10.78;76.78
7940;BME280;4015;48.888;9.226;2023-04-01T16:26:26;157962.44;;;10.82;75.92
7940;BME280;4015;48.888;9.226;2023-04-01T16:28:54;157948.38;;;10.76;76.51
7940;BME280;4015;48.888;9.226;2023-04-01T16:31:36;157966.25;;;10.84;76.84
7940;BME280;4015;48.888;9.226;2023-04-01T16:34:20;157959.84;;;10.81;75.71
7940;BME280;4015;48.888;9.226;2023-04-01T16:36:54;157953.47;;;10.78;76.53
7940;BME280;4015;48.888;9.226;2023-04-01T16:39:37;157949.66;;;10.77;76.36
7940;BME280;4015;48.888;9.226;2023-04-01T16:45:17;157959.84;;;10.81;75.61
7940;BME280;4015;48.888;9.226;2023-04-01T16:47:50;157957.28;;;10.80;76.43
7940;BME280;4015;48.888;9.226;2023-04-01T16:50:22;157973.91;;;10.87;75.89
7940;BME280;4015;48.888;9.226;2023-04-01T16:58:32;157990.50;;;10.93;77.24
7940;BME280;4015;48.888;9.226;2023-04-01T17:01:16;157993.09;;;10.94;76.31
7940;BME280;4015;48.888;9.226;2023-04-01T17:03:46;157971.34;;;10.86;76.20
7940;BME280;4015;48.888;9.226;2023-04-01T17:06:24;157954.75;;;10.79;77.01
7940;BME280;4015;48.888;9.226;2023-04-01T17:19:56;157922.81;;;10.66;77.27
7940;BME280;4015;48.888;9.226;2023-04-01T17:31:36;157927.91;;;10.68;77.01
7940;BME280;4015;48.888;9.226;2023-04-01T17:34:39;157925.34;;;10.67;77.41
7940;BME280;4015;48.888;9.226;2023-04-01T17:39:54;157921.53;;;10.66;77.98
7940;BME280;4015;48.888;9.226;2023-04-01T17:42:50;157927.91;;;10.68;77.94
7940;BME280;4015;48.888;9.226;2023-04-01T17:45:24;157936.88;;;10.72;78.35
7940;BME280;4015;48.888;9.226;2023-04-01T17:48:06;157949.66;;;10.77;78.33
7940;BME280;4015;48.888;9.226;2023-04-01T17:51:03;157933.03;;;10.70;78.51
7940;BME280;4015;48.888;9.226;2023-04-01T17:53:39;157926.63;;;10.68;78.76
7940;BME280;4015;48.888;9.226;2023-04-01T17:56:16;157895.97;;;10.56;78.55
7940;BME280;4015;48.888;9.226;2023-04-01T17:58:46;157919.00;;;10.65;79.08
7940;BME280;4015;48.888;9.226;2023-04-01T18:01:21;157915.16;;;10.63;79.53
7940;BME280;4015;48.888;9.226;2023-04-01T18:03:57;157884.50;;;10.51;79.16
7940;BME280;4015;48.888;9.226;2023-04-01T18:10:01;157883.25;;;10.50;80.22
7940;BME280;4015;48.888;9.226;2023-04-01T18:26:39;157820.66;;;10.25;81.86
7940;BME280;4015;48.888;9.226;2023-04-01T18:38:07;157779.72;;;10.09;81.84
7940;BME280;4015;48.888;9.226;2023-04-01T18:40:39;157760.56;;;10.02;82.01
7940;BME280;4015;48.888;9.226;2023-04-01T18:45:37;157727.38;;;9.88;82.07
7940;BME280;4015;48.888;9.226;2023-04-01T18:51:41;157715.88;;;9.84;82.55
7940;BME280;4015;48.888;9.226;2023-04-01T18:53:58;157698.00;;;9.77;82.63
7940;BME280;4015;48.888;9.226;2023-04-01T18:56:39;157685.22;;;9.71;82.97
7940;BME280;4015;48.888;9.226;2023-04-01T18:59:11;157690.31;;;9.73;83.18
7940;BME280;4015;48.888;9.226;2023-04-01T19:04:37;157705.66;;;9.80;82.68
7940;BME280;4015;48.888;9.226;2023-04-01T19:10:15;157692.91;;;9.75;83.02
7940;BME280;4015;48.888;9.226;2023-04-01T19:13:06;157675.00;;;9.67;83.39
7940;BME280;4015;48.888;9.226;2023-04-01T19:15:52;157661.00;;;9.62;82.79
7940;BME280;4015;48.888;9.226;2023-04-01T19:18:35;157640.53;;;9.54;82.95
7940;BME280;4015;48.888;9.226;2023-04-01T19:21:16;157621.41;;;9.46;82.87
7940;BME280;4015;48.888;9.226;2023-04-01T19:26:35;157549.91;;;9.17;83.24
7940;BME280;4015;48.888;9.226;2023-04-01T19:34:53;157528.25;;;9.09;83.63
7940;BME280;4015;48.888;9.226;2023-04-01T19:37:27;157502.69;;;8.99;83.52
7940;BME280;4015;48.888;9.226;2023-04-01T19:51:26;157419.78;;;8.65;85.16
7940;BME280;4015;48.888;9.226;2023-04-01T19:54:18;157399.38;;;8.57;85.38
7940;BME280;4015;48.888;9.226;2023-04-01T19:59:34;157367.47;;;8.45;86.01
7940;BME280;4015;48.888;9.226;2023-04-01T20:04:53;157407.00;;;8.60;85.92
7940;BME280;4015;48.888;9.226;2023-04-01T20:07:26;157419.78;;;8.65;85.45
7940;BME280;4015;48.888;9.226;2023-04-01T20:10:29;157427.44;;;8.69;85.08
7940;BME280;4015;48.888;9.226;2023-04-01T20:17:47;157469.53;;;8.85;84.94
7940;BME280;4015;48.888;9.226;2023-04-01T20:20:40;157493.78;;;8.95;84.91
7940;BME280;4015;48.888;9.226;2023-04-01T20:23:21;157502.69;;;8.99;84.91
7940;BME280;4015;48.888;9.226;2023-04-01T20:25:57;157530.78;;;9.10;84.36
7940;BME280;4015;48.888;9.226;2023-04-01T20:31:16;157563.97;;;9.23;83.49
7940;BME280;4015;48.888;9.226;2023-04-01T20:34:06;157575.44;;;9.28;82.98
7940;BME280;4015;48.888;9.226;2023-04-01T20:37:10;157574.19;;;9.27;83.42
7940;BME280;4015;48.888;9.226;2023-04-01T20:45:55;157599.72;;;9.37;83.51
7940;BME280;4015;48.888;9.226;2023-04-01T20:51:07;157598.47;;;9.37;82.96
7940;BME280;4015;48.888;9.226;2023-04-01T21:02:47;157620.13;;;9.45;82.89
7940;BME280;4015;48.888;9.226;2023-04-01T21:08:02;157626.50;;;9.48;82.59
7940;BME280;4015;48.888;9.226;2023-04-01T21:13:39;157639.28;;;9.53;82.56
7940;BME280;4015;48.888;9.226;2023-04-01T21:19:59;157629.09;;;9.49;82.64
7940;BME280;4015;48.888;9.226;2023-04-01T21:28:52;157653.31;;;9.59;82.77
7940;BME280;4015;48.888;9.226;2023-04-01T21:33:58;157654.59;;;9.59;82.57
7940;BME280;4015;48.888;9.226;2023-04-01T21:39:47;157652.03;;;9.58;83.11
7940;BME280;4015;48.888;9.226;2023-04-01T21:42:38;157672.47;;;9.66;82.93
7940;BME280;4015;48.888;9.226;2023-04-01T21:45:46;157680.13;;;9.69;82.27
7940;BME280;4015;48.888;9.226;2023-04-01T21:51:33;157673.72;;;9.67;83.17
7940;BME280;4015;48.888;9.226;2023-04-01T21:54:30;157687.78;;;9.72;82.93
7940;BME280;4015;48.888;9.226;2023-04-01T22:03:00;157708.25;;;9.81;82.27
7940;BME280;4015;48.888;9.226;2023-04-01T22:05:28;157685.22;;;9.71;83.11
7940;BME280;4015;48.888;9.226;2023-04-01T22:13:39;157668.63;;;9.65;83.13
7940;BME280;4015;48.888;9.226;2023-04-01T22:16:25;157667.38;;;9.64;83.57
7940;BME280;4015;48.888;9.226;2023-04-01T22:19:20;157657.13;;;9.60;83.65
7940;BME280;4015;48.888;9.226;2023-04-01T22:25:03;157658.41;;;9.61;83.72